Latest Coastal Weather Observations for Maatsuyker Island

IDT60701

Issued at 12:05 am EST Saturday 30 August 2014 (issued every 10 minutes, with the page automatically refreshed every 10 minutes)

About coastal observations | Map of coastal stations | Coastal observations for TAS | Marine services | Other Formats
Station Details ID: 094041 Name: MAATSUYKER ISLAND LIGHTHOUSE Lat: -43.66 Lon: 146.27 Height: 146.5 m
Data from the previous 72 hours. | See also: Recent months at Maatsuyker Island
Date/Time
EST
Temp

°C
Wind Pressure Rain
since 9am
mm
Weather Cloud Vis
km
Sea
Height
m
Swell
Dir
 
Speed
knots
Gust
knots
hPa Trend Height
m
Period
s
Dir
30/12:00am 10.7 N 5 6 1028.6 - 0.0 - - - - - - -
 
Date/Time
EST
Temp

°C
Wind Pressure Rain
since 9am
mm
Weather Cloud Vis
km
Sea
Height
m
Swell
Dir
 
Speed
knots
Gust
knots
hPa Trend Height
m
Period
s
Dir
29/11:30pm 10.9 NNW 5 6 1028.3 - 0.0 - - - - - - -
29/11:00pm 10.9 WNW 4 5 1028.4 - 0.0 - - - - - - -
29/10:30pm 10.9 WNW 4 4 1028.6 - 0.0 - - - - - - -
29/10:00pm 10.7 NW 7 7 1028.7 - 0.0 - - - - - - -
29/09:30pm 10.9 NNW 6 7 1028.6 - 0.0 - - - - - - -
29/09:00pm 11.2 NNW 7 8 1028.8 - 0.0 - - - - - - -
29/08:30pm 11.3 N 5 7 1028.5 - 0.0 - - - - - - -
29/08:00pm 11.3 ENE 4 7 1028.6 - 0.0 - - - - - - -
29/07:30pm 11.4 NNE 5 8 1028.5 - 0.0 - - - - - - -
29/07:00pm 11.2 NNE 5 10 1028.6 - 0.0 - - - - - - -
29/06:30pm 11.6 NE 7 11 1028.4 - 0.0 - - - - - - -
29/06:00pm 11.8 ENE 7 11 1028.7 - 0.0 - - - - - - -
29/05:30pm 12.0 CALM 0 3 1028.4 - 0.0 - - - - - - -
29/05:00pm 12.2 NNW 7 11 1028.3 - 0.0 - - - - - - -
29/04:30pm 12.5 NNW 8 9 1028.4 - 0.0 - - - - - - -
29/04:00pm 13.3 NW 11 13 1028.2 - 0.0 - - - - - - -
29/03:30pm 13.3 NW 10 13 1028.1 - 0.0 - - - - - - -
29/03:00pm 13.6 NW 12 17 1028.2 F 0.0 Haze Mostly clear 20 1 3.0 15 SW
29/02:30pm 13.7 NW 18 21 1027.9 - 0.0 - - - - - - -
29/02:00pm 13.7 NW 20 23 1027.8 - 0.0 - - - - - - -
29/01:30pm 13.4 NW 19 21 1028.0 - 0.0 - - - - - - -
29/01:00pm 13.4 NW 19 21 1028.1 - 0.0 - - - - - - -
29/12:30pm 13.4 NW 17 19 1028.3 - 0.0 - - - - - - -
29/12:00pm 13.3 NW 16 18 1029.0 - 0.0 - - - - - - -
29/11:30am 13.3 NW 13 15 1029.1 - 0.0 - - - - - - -
29/11:00am 13.0 NW 13 15 1029.2 - 0.0 - - - - - - -
29/10:30am 12.5 NNW 10 14 1029.0 - 0.0 - - - - - - -
29/10:00am 12.3 NNW 11 14 1028.9 - 0.0 - - - - - - -
29/09:30am 11.6 NNW 12 15 1029.1 - 0.0 - - - - - - -
29/09:00am 11.2 NNW 8 15 1029.3 R 0.0 Haze Mostly clear 25 <0.5 2.5 14 SW
29/08:30am 10.8 NNW 12 16 1029.0 - 0.0 - - - - - - -
29/08:00am 10.6 NNW 11 14 1028.7 - 0.0 - - - - - - -
29/07:30am 10.3 NNW 11 15 1028.3 - 0.0 - - - - - - -
29/07:00am 10.4 NNW 9 13 1028.0 - 0.0 - - - - - - -
29/06:30am 10.5 NNW 9 11 1027.8 - 0.0 - - - - - - -
29/06:00am 10.9 NW 6 14 1027.9 S 0.0 Haze Partly cloudy 12 <0.5 2.5 14 SW
29/05:30am 10.6 NNW 12 16 1027.3 - 0.0 - - - - - - -
29/05:00am 10.6 NNW 13 16 1027.3 - 0.0 - - - - - - -
29/04:30am 11.0 NNW 14 17 1027.3 - 0.0 - - - - - - -
29/04:00am 10.8 NNW 11 14 1027.4 - 0.0 - - - - - - -
29/03:30am 10.7 NNW 10 13 1027.3 - 0.0 - - - - - - -
29/03:00am 10.9 N 11 14 1027.4 - 0.0 - - - - - - -
29/02:30am 10.9 NNW 12 16 1027.2 - 0.0 - - - - - - -
29/02:00am 11.2 NNW 11 15 1027.5 - 0.0 - - - - - - -
29/01:30am 11.2 NNW 10 13 1027.7 - 0.0 - - - - - - -
29/01:00am 11.4 NNW 10 13 1027.6 - 0.0 - - - - - - -
29/12:30am 11.1 NNW 7 9 1027.7 - 0.0 - - - - - - -
29/12:00am 11.0 N 8 10 1028.0 - 0.0 - - - - - - -
 
Date/Time
EST
Temp

°C
Wind Pressure Rain
since 9am
mm
Weather Cloud Vis
km
Sea
Height
m
Swell
Dir
 
Speed
knots
Gust
knots
hPa Trend Height
m
Period
s
Dir
28/11:30pm 11.1 NNW 7 9 1027.5 - 0.0 - - - - - - -
28/11:00pm 11.3 NNW 8 8 1027.5 - 0.0 - - - - - - -
28/10:30pm 11.0 N 7 8 1027.5 - 0.0 - - - - - - -
28/10:00pm 11.5 NE 8 9 1027.6 - 0.0 - - - - - - -
28/09:30pm 11.6 ENE 9 10 1027.6 - 0.0 - - - - - - -
28/09:00pm 11.4 ENE 10 12 1028.0 - 0.0 - - - - - - -
28/08:30pm 11.5 ENE 9 11 1027.8 - 0.0 - - - - - - -
28/08:00pm 11.6 ENE 10 12 1027.6 - 0.0 - - - - - - -
28/07:30pm 11.6 ENE 7 11 1027.5 - 0.0 - - - - - - -
28/07:00pm 11.7 E 10 11 1027.7 - 0.0 - - - - - - -
28/06:30pm 11.7 N 4 9 1027.6 - 0.0 - - - - - - -
28/06:00pm 11.8 NNW 3 6 1027.7 - 0.0 - - - - - - -
28/05:30pm 11.9 NNW 4 6 1027.3 - 0.0 - - - - - - -
28/05:00pm 12.3 NNE 1 4 1027.2 - 0.0 - - - - - - -
28/04:30pm 12.4 N 4 6 1027.0 - 0.0 - - - - - - -
28/04:00pm 12.5 NNW 5 8 1027.0 - 0.0 - - - - - - -
28/03:30pm 12.4 NNW 8 11 1026.9 - 0.0 - - - - - - -
28/03:00pm 12.8 NNW 6 9 1027.3 F 0.0 Haze Mostly cloudy 14 <0.5 3.5 13 SW
28/02:30pm 13.0 NW 7 9 1027.1 - 0.0 - - - - - - -
28/02:00pm 13.5 WNW 5 8 1027.1 - 0.0 - - - - - - -
28/01:30pm 12.8 W 4 6 1027.4 - 0.0 - - - - - - -
28/01:00pm 13.0 CALM 0 2 1027.6 - 0.0 - - - - - - -
28/12:30pm 13.2 WNW 4 5 1027.8 - 0.0 - - - - - - -
28/12:00pm 12.3 NW 4 5 1028.4 - 0.0 - - - - - - -
28/11:30am 12.8 NW 2 4 1028.5 - 0.0 - - - - - - -
28/11:00am 12.7 NW 4 5 1028.5 - 0.0 - - - - - - -
28/10:30am 12.3 N 3 4 1028.8 - 0.0 - - - - - - -
28/10:00am 12.3 N 3 5 1028.9 - 0.0 - - - - - - -
28/09:30am 11.8 NNW 4 5 1028.9 - 0.0 - - - - - - -
28/09:00am 12.2 N 3 4 1029.1 R 0.2 Mist Mostly cloudy 8 <0.1 2.5 14 SW
28/08:30am 12.1 N 2 4 1028.7 - 0.2 - - - - - - -
28/08:00am 11.7 N 4 5 1028.5 - 0.2 - - - - - - -
28/07:30am 11.6 N 5 6 1028.3 - 0.2 - - - - - - -
28/07:00am 11.2 N 6 6 1028.3 - 0.2 - - - - - - -
28/06:30am 11.2 N 4 6 1028.0 - 0.2 - - - - - - -
28/06:00am 11.4 N 3 - 1028.2 F - Mist Mostly cloudy 8 <0.1 2.5 14 SW
28/05:30am 11.6 N 6 7 1027.9 - 0.2 - - - - - - -
28/05:00am 11.6 N 6 7 1027.9 - 0.2 - - - - - - -
28/04:30am 11.6 N 5 6 1027.9 - 0.2 - - - - - - -
28/04:00am 11.6 NNW 6 7 1027.8 - 0.2 - - - - - - -
28/03:30am 11.6 NNW 6 7 1027.9 - 0.2 - - - - - - -
28/03:00am 11.6 NNW 7 9 1028.2 - 0.2 - - - - - - -
28/02:30am 11.6 NNW 7 9 1027.9 - 0.2 - - - - - - -
28/02:00am 11.6 NNW 8 10 1028.0 - 0.2 - - - - - - -
28/01:30am 11.6 N 8 10 1028.1 - 0.2 - - - - - - -
28/01:00am 11.4 N 6 8 1028.1 - 0.2 - - - - - - -
28/12:30am 11.4 NNW 6 8 1028.1 - 0.2 - - - - - - -
28/12:00am 11.4 NNW 9 12 1028.4 - 0.2 - - - - - - -
 
Date/Time
EST
Temp

°C
Wind Pressure Rain
since 9am
mm
Weather Cloud Vis
km
Sea
Height
m
Swell
Dir
 
Speed
knots
Gust
knots
hPa Trend Height
m
Period
s
Dir
27/11:30pm 11.5 NNW 8 9 1028.3 - 0.2 - - - - - - -
27/11:00pm 11.6 N 8 11 1028.1 - 0.2 - - - - - - -
27/10:30pm 11.5 N 7 11 1028.2 - 0.2 - - - - - - -
27/10:00pm 11.6 N 9 12 1028.2 - 0.2 - - - - - - -
27/09:30pm 11.7 NNW 10 13 1028.3 - 0.2 - - - - - - -
27/09:00pm 11.6 N 8 9 1028.7 - 0.2 - - - - - - -
27/08:30pm 11.7 NNW 8 11 1028.3 - 0.2 - - - - - - -
27/08:00pm 11.9 NNW 9 11 1028.0 - 0.2 - - - - - - -
27/07:30pm 12.1 NNW 14 16 1028.0 - 0.0 - - - - - - -
27/07:00pm 12.1 NNW 17 19 1027.8 - 0.0 - - - - - - -
27/06:30pm 12.2 NNW 18 21 1027.3 - 0.0 - - - - - - -
27/06:00pm 12.1 NNW 15 18 1027.3 - 0.0 - - - - - - -
27/05:30pm 12.2 NNW 14 19 1026.8 - 0.0 - - - - - - -
27/05:00pm 12.3 NNW 21 25 1026.4 - 0.0 - - - - - - -
27/04:30pm 12.4 NNW 23 28 1026.2 - 0.0 - - - - - - -
27/04:00pm 12.4 NW 24 27 1025.9 - 0.0 - - - - - - -
27/03:30pm 13.0 NW 24 26 1025.9 - 0.0 - - - - - - -
27/03:00pm 13.1 NW 16 25 1026.2 F 0.0 Haze Mostly cloudy 12 1 3.0 11 SW
27/02:30pm 12.6 NW 17 19 1026.3 - 0.0 - - - - - - -
27/02:00pm 13.0 NNW 18 22 1026.2 - 0.0 - - - - - - -
27/01:30pm 12.4 NW 19 22 1026.2 - 0.0 - - - - - - -
27/01:00pm 13.7 NW 19 22 1026.3 - 0.0 - - - - - - -
27/12:57pm 13.5 NW 19 22 1026.4 - 0.0 - - - - - - -
27/12:30pm 13.9 NNW 8 12 1027.0 - 0.0 - - - - - - -
27/12:00pm 13.9 NW 9 11 1027.3 - 0.0 - - - - - - -
27/11:30am 13.7 WNW 7 8 1027.5 - 0.0 - - - - - - -
27/11:00am 13.2 NW 3 7 1027.5 - 0.0 - - - - - - -
27/10:30am 13.8 NNW 7 8 1027.2 - 0.0 - - - - - - -
27/10:00am 12.7 N 6 7 1027.5 - 0.0 - - - - - - -
27/09:30am 12.2 N 8 10 1027.6 - 0.0 - - - - - - -
27/09:00am 11.0 NNW 5 11 1027.8 R 0.0 Fine Clear 30 <0.5 2.5 14 SW
27/08:30am 10.5 NNW 6 7 1027.3 - 0.0 - - - - - - -
27/08:00am 10.3 N 7 9 1027.0 - 0.0 - - - - - - -
27/07:30am 9.9 N 8 9 1026.9 - 0.0 - - - - - - -
27/07:00am 9.8 N 8 10 1026.6 - 0.0 - - - - - - -
27/06:30am 9.6 N 9 11 1026.5 - 0.0 - - - - - - -
27/06:00am 10.6 N 6 14 1026.6 F 0.0 Fine Clear 25 <0.5 2.5 13 SW
27/05:30am 10.3 N 10 12 1026.3 - 0.0 - - - - - - -
27/05:00am 10.4 N 9 11 1026.4 - 0.0 - - - - - - -
27/04:30am 10.9 N 11 15 1026.3 - 0.0 - - - - - - -
27/04:00am 11.0 N 11 14 1026.3 - 0.0 - - - - - - -
27/03:30am 11.4 NNW 11 15 1026.4 - 0.0 - - - - - - -
27/03:00am 11.0 N 11 15 1026.6 - 0.0 - - - - - - -
27/02:30am 10.5 N 9 11 1026.6 - 0.0 - - - - - - -
27/02:00am 10.8 N 9 11 1026.7 - 0.0 - - - - - - -
27/01:30am 11.1 N 9 11 1027.0 - 0.0 - - - - - - -
27/01:00am 10.8 N 10 11 1027.0 - 0.0 - - - - - - -
27/12:30am 10.5 N 9 11 1027.2 - 0.0 - - - - - - -

Other Formats:

Comma delimited format used in spreadsheet applications
http://www.bom.gov.au/fwo/IDT60701/IDT60701.94962.axf

JavaScript Object Notation format (JSON) in row-major order
http://www.bom.gov.au/fwo/IDT60701/IDT60701.94962.json